sensor_id;sensor_type;location;lat;lon;timestamp;P1;durP1;ratioP1;P2;durP2;ratioP2
54917;SDS011;40818;50.562;7.454;2022-08-21T05:21:53;15.43;;;3.75;;
54917;SDS011;40818;50.562;7.454;2022-08-21T05:26:57;11.40;;;3.33;;
54917;SDS011;40818;50.562;7.454;2022-08-21T05:32:03;16.70;;;2.00;;
54917;SDS011;40818;50.562;7.454;2022-08-21T05:37:14;11.70;;;1.83;;
54917;SDS011;40818;50.562;7.454;2022-08-21T05:42:17;9.50;;;2.33;;
54917;SDS011;40818;50.562;7.454;2022-08-21T05:47:21;9.88;;;1.77;;
54917;SDS011;40818;50.562;7.454;2022-08-21T05:52:27;5.75;;;1.35;;
54917;SDS011;40818;50.562;7.454;2022-08-21T05:57:30;5.72;;;1.40;;
54917;SDS011;40818;50.562;7.454;2022-08-21T06:02:34;10.02;;;1.67;;
54917;SDS011;40818;50.562;7.454;2022-08-21T06:07:39;7.10;;;1.95;;
54917;SDS011;40818;50.562;7.454;2022-08-21T06:12:43;5.63;;;1.40;;
54917;SDS011;40818;50.562;7.454;2022-08-21T06:17:46;9.32;;;1.88;;
54917;SDS011;40818;50.562;7.454;2022-08-21T06:22:52;10.90;;;1.75;;
54917;SDS011;40818;50.562;7.454;2022-08-21T06:28:00;9.93;;;2.40;;
54917;SDS011;40818;50.562;7.454;2022-08-21T06:33:04;16.40;;;3.50;;
54917;SDS011;40818;50.562;7.454;2022-08-21T06:38:11;17.63;;;2.80;;
54917;SDS011;40818;50.562;7.454;2022-08-21T06:43:15;14.52;;;2.40;;
54917;SDS011;40818;50.562;7.454;2022-08-21T06:48:19;15.05;;;2.47;;
54917;SDS011;40818;50.562;7.454;2022-08-21T06:53:25;20.80;;;2.92;;
54917;SDS011;40818;50.562;7.454;2022-08-21T06:58:29;8.38;;;2.40;;
54917;SDS011;40818;50.562;7.454;2022-08-21T07:03:33;10.95;;;2.35;;
54917;SDS011;40818;50.562;7.454;2022-08-21T07:08:41;9.38;;;1.63;;
54917;SDS011;40818;50.562;7.454;2022-08-21T07:13:45;9.43;;;1.98;;
54917;SDS011;40818;50.562;7.454;2022-08-21T07:18:49;11.15;;;1.60;;
54917;SDS011;40818;50.562;7.454;2022-08-21T07:23:55;7.65;;;1.48;;
54917;SDS011;40818;50.562;7.454;2022-08-21T07:28:59;10.38;;;1.35;;
54917;SDS011;40818;50.562;7.454;2022-08-21T07:34:02;14.30;;;1.02;;
54917;SDS011;40818;50.562;7.454;2022-08-21T07:39:08;13.57;;;1.40;;
54917;SDS011;40818;50.562;7.454;2022-08-21T07:44:11;14.32;;;1.67;;
54917;SDS011;40818;50.562;7.454;2022-08-21T07:49:15;4.30;;;0.80;;
54917;SDS011;40818;50.562;7.454;2022-08-21T07:54:21;6.63;;;0.70;;
54917;SDS011;40818;50.562;7.454;2022-08-21T07:59:24;4.50;;;0.55;;
54917;SDS011;40818;50.562;7.454;2022-08-21T08:04:28;3.88;;;0.60;;
54917;SDS011;40818;50.562;7.454;2022-08-21T08:09:34;4.60;;;0.70;;
54917;SDS011;40818;50.562;7.454;2022-08-21T08:14:37;3.70;;;0.60;;
54917;SDS011;40818;50.562;7.454;2022-08-21T08:19:41;10.52;;;0.70;;
54917;SDS011;40818;50.562;7.454;2022-08-21T08:24:47;2.72;;;0.50;;
54917;SDS011;40818;50.562;7.454;2022-08-21T08:29:51;3.08;;;0.60;;
54917;SDS011;40818;50.562;7.454;2022-08-21T08:34:54;3.15;;;0.40;;
54917;SDS011;40818;50.562;7.454;2022-08-21T08:40:00;2.55;;;0.40;;
54917;SDS011;40818;50.562;7.454;2022-08-21T08:45:04;6.90;;;0.30;;
54917;SDS011;40818;50.562;7.454;2022-08-21T08:50:12;2.92;;;0.40;;
54917;SDS011;40818;50.562;7.454;2022-08-21T08:55:23;3.28;;;0.30;;
54917;SDS011;40818;50.562;7.454;2022-08-21T09:00:31;2.17;;;0.30;;
54917;SDS011;40818;50.562;7.454;2022-08-21T09:05:38;2.58;;;0.15;;
54917;SDS011;40818;50.562;7.454;2022-08-21T09:11:03;2.78;;;0.40;;
54917;SDS011;40818;50.562;7.454;2022-08-21T09:16:13;2.70;;;0.30;;
54917;SDS011;40818;50.562;7.454;2022-08-21T09:21:25;7.93;;;0.50;;
54917;SDS011;40818;50.562;7.454;2022-08-21T09:26:40;4.88;;;0.40;;
54917;SDS011;40818;50.562;7.454;2022-08-21T09:31:51;3.63;;;0.40;;
54917;SDS011;40818;50.562;7.454;2022-08-21T09:36:54;3.70;;;0.30;;
54917;SDS011;40818;50.562;7.454;2022-08-21T09:42:02;2.53;;;0.30;;
54917;SDS011;40818;50.562;7.454;2022-08-21T09:47:08;4.45;;;0.32;;
54917;SDS011;40818;50.562;7.454;2022-08-21T09:52:15;2.97;;;0.40;;
54917;SDS011;40818;50.562;7.454;2022-08-21T09:57:25;1.92;;;0.30;;
54917;SDS011;40818;50.562;7.454;2022-08-21T10:02:46;6.45;;;0.47;;
54917;SDS011;40818;50.562;7.454;2022-08-21T10:07:49;2.97;;;0.30;;
54917;SDS011;40818;50.562;7.454;2022-08-21T10:12:57;4.53;;;0.30;;
54917;SDS011;40818;50.562;7.454;2022-08-21T10:18:07;3.00;;;0.30;;
54917;SDS011;40818;50.562;7.454;2022-08-21T10:23:26;3.45;;;0.40;;
54917;SDS011;40818;50.562;7.454;2022-08-21T10:28:39;2.67;;;0.20;;
54917;SDS011;40818;50.562;7.454;2022-08-21T10:33:52;1.23;;;0.20;;
54917;SDS011;40818;50.562;7.454;2022-08-21T10:39:11;3.85;;;0.40;;
54917;SDS011;40818;50.562;7.454;2022-08-21T10:44:28;2.22;;;0.20;;
54917;SDS011;40818;50.562;7.454;2022-08-21T10:49:40;1.65;;;0.10;;
54917;SDS011;40818;50.562;7.454;2022-08-21T10:54:52;1.42;;;0.10;;
54917;SDS011;40818;50.562;7.454;2022-08-21T11:00:06;0.77;;;0.10;;
54917;SDS011;40818;50.562;7.454;2022-08-21T11:05:13;1.00;;;0.30;;
54917;SDS011;40818;50.562;7.454;2022-08-21T11:10:21;1.10;;;0.20;;
54917;SDS011;40818;50.562;7.454;2022-08-21T11:15:31;0.38;;;0.10;;
54917;SDS011;40818;50.562;7.454;2022-08-21T11:20:41;1.90;;;0.13;;
54917;SDS011;40818;50.562;7.454;2022-08-21T11:25:51;1.33;;;0.10;;
54917;SDS011;40818;50.562;7.454;2022-08-21T11:31:02;0.60;;;0.10;;
54917;SDS011;40818;50.562;7.454;2022-08-21T11:36:15;1.27;;;0.20;;
54917;SDS011;40818;50.562;7.454;2022-08-21T11:41:31;0.85;;;0.10;;
54917;SDS011;40818;50.562;7.454;2022-08-21T11:46:51;1.13;;;0.10;;
54917;SDS011;40818;50.562;7.454;2022-08-21T11:52:07;1.00;;;0.10;;
54917;SDS011;40818;50.562;7.454;2022-08-21T11:57:17;0.45;;;0.10;;
54917;SDS011;40818;50.562;7.454;2022-08-21T12:02:28;0.90;;;0.10;;
54917;SDS011;40818;50.562;7.454;2022-08-21T12:07:35;0.80;;;0.10;;
54917;SDS011;40818;50.562;7.454;2022-08-21T12:12:42;1.27;;;0.10;;
54917;SDS011;40818;50.562;7.454;2022-08-21T12:17:54;1.08;;;0.10;;
54917;SDS011;40818;50.562;7.454;2022-08-21T12:23:04;1.95;;;0.10;;
54917;SDS011;40818;50.562;7.454;2022-08-21T12:28:21;3.28;;;0.73;;
54917;SDS011;40818;50.562;7.454;2022-08-21T12:33:29;1.47;;;0.10;;
54917;SDS011;40818;50.562;7.454;2022-08-21T12:38:39;0.93;;;0.10;;
54917;SDS011;40818;50.562;7.454;2022-08-21T12:43:50;1.02;;;0.10;;
54917;SDS011;40818;50.562;7.454;2022-08-21T12:49:00;0.82;;;0.10;;
54917;SDS011;40818;50.562;7.454;2022-08-21T12:54:08;1.05;;;0.20;;
54917;SDS011;40818;50.562;7.454;2022-08-21T12:59:12;3.65;;;0.10;;
54917;SDS011;40818;50.562;7.454;2022-08-21T13:04:19;1.02;;;0.17;;
54917;SDS011;40818;50.562;7.454;2022-08-21T13:09:26;0.28;;;0.10;;
54917;SDS011;40818;50.562;7.454;2022-08-21T13:14:33;1.15;;;0.10;;
54917;SDS011;40818;50.562;7.454;2022-08-21T13:19:51;1.60;;;0.10;;
54917;SDS011;40818;50.562;7.454;2022-08-21T13:24:56;3.35;;;0.20;;
54917;SDS011;40818;50.562;7.454;2022-08-21T13:30:07;4.55;;;0.10;;
54917;SDS011;40818;50.562;7.454;2022-08-21T13:35:18;2.40;;;0.15;;
54917;SDS011;40818;50.562;7.454;2022-08-21T13:40:24;0.50;;;0.00;;
54917;SDS011;40818;50.562;7.454;2022-08-21T13:45:31;1.73;;;0.10;;
54917;SDS011;40818;50.562;7.454;2022-08-21T13:50:38;1.25;;;0.20;;
54917;SDS011;40818;50.562;7.454;2022-08-21T13:55:43;0.98;;;0.10;;
54917;SDS011;40818;50.562;7.454;2022-08-21T14:00:47;0.47;;;0.10;;
54917;SDS011;40818;50.562;7.454;2022-08-21T14:05:56;1.42;;;0.20;;
54917;SDS011;40818;50.562;7.454;2022-08-21T14:11:00;3.90;;;0.20;;
54917;SDS011;40818;50.562;7.454;2022-08-21T14:16:11;1.10;;;0.10;;
54917;SDS011;40818;50.562;7.454;2022-08-21T14:21:27;1.02;;;0.10;;
54917;SDS011;40818;50.562;7.454;2022-08-21T14:26:34;2.15;;;0.10;;
54917;SDS011;40818;50.562;7.454;2022-08-21T14:31:39;0.68;;;0.10;;
54917;SDS011;40818;50.562;7.454;2022-08-21T14:36:45;1.38;;;0.20;;
54917;SDS011;40818;50.562;7.454;2022-08-21T14:41:49;0.80;;;0.20;;
54917;SDS011;40818;50.562;7.454;2022-08-21T14:46:55;1.10;;;0.10;;
54917;SDS011;40818;50.562;7.454;2022-08-21T14:52:01;0.68;;;0.10;;
54917;SDS011;40818;50.562;7.454;2022-08-21T14:57:06;1.13;;;0.20;;
54917;SDS011;40818;50.562;7.454;2022-08-21T15:02:13;1.48;;;0.10;;
54917;SDS011;40818;50.562;7.454;2022-08-21T15:07:19;0.75;;;0.10;;
54917;SDS011;40818;50.562;7.454;2022-08-21T15:12:23;1.52;;;0.17;;
54917;SDS011;40818;50.562;7.454;2022-08-21T15:17:27;2.72;;;0.20;;
54917;SDS011;40818;50.562;7.454;2022-08-21T15:22:33;0.95;;;0.10;;
54917;SDS011;40818;50.562;7.454;2022-08-21T15:27:37;1.20;;;0.20;;
54917;SDS011;40818;50.562;7.454;2022-08-21T15:32:40;1.13;;;0.15;;
54917;SDS011;40818;50.562;7.454;2022-08-21T15:37:46;11.60;;;0.75;;
54917;SDS011;40818;50.562;7.454;2022-08-21T15:42:50;2.13;;;0.20;;
54917;SDS011;40818;50.562;7.454;2022-08-21T15:47:56;1.80;;;0.20;;
54917;SDS011;40818;50.562;7.454;2022-08-21T15:53:02;0.73;;;0.10;;
54917;SDS011;40818;50.562;7.454;2022-08-21T15:58:06;1.92;;;0.30;;
54917;SDS011;40818;50.562;7.454;2022-08-21T16:03:11;3.28;;;0.20;;
54917;SDS011;40818;50.562;7.454;2022-08-21T16:08:21;2.05;;;0.20;;
54917;SDS011;40818;50.562;7.454;2022-08-21T16:13:27;1.90;;;0.20;;
54917;SDS011;40818;50.562;7.454;2022-08-21T16:18:33;1.92;;;0.30;;
54917;SDS011;40818;50.562;7.454;2022-08-21T16:23:40;1.23;;;0.20;;
54917;SDS011;40818;50.562;7.454;2022-08-21T16:28:44;2.95;;;0.20;;
54917;SDS011;40818;50.562;7.454;2022-08-21T16:33:50;1.38;;;0.30;;
54917;SDS011;40818;50.562;7.454;2022-08-21T16:38:59;3.30;;;0.20;;
54917;SDS011;40818;50.562;7.454;2022-08-21T16:44:03;2.50;;;0.30;;
54917;SDS011;40818;50.562;7.454;2022-08-21T16:49:09;7.10;;;0.30;;
54917;SDS011;40818;50.562;7.454;2022-08-21T16:54:16;1.02;;;0.20;;
54917;SDS011;40818;50.562;7.454;2022-08-21T16:59:19;1.80;;;0.30;;
54917;SDS011;40818;50.562;7.454;2022-08-21T17:04:23;1.85;;;0.20;;
54917;SDS011;40818;50.562;7.454;2022-08-21T17:09:30;3.47;;;0.20;;
54917;SDS011;40818;50.562;7.454;2022-08-21T17:14:33;1.52;;;0.20;;
54917;SDS011;40818;50.562;7.454;2022-08-21T17:19:38;1.42;;;0.20;;
54917;SDS011;40818;50.562;7.454;2022-08-21T17:24:44;2.10;;;0.20;;
54917;SDS011;40818;50.562;7.454;2022-08-21T17:29:48;0.98;;;0.20;;
54917;SDS011;40818;50.562;7.454;2022-08-21T17:34:53;2.08;;;0.22;;
54917;SDS011;40818;50.562;7.454;2022-08-21T17:40:00;1.63;;;0.28;;
54917;SDS011;40818;50.562;7.454;2022-08-21T17:45:05;2.53;;;0.20;;
54917;SDS011;40818;50.562;7.454;2022-08-21T17:50:11;1.17;;;0.20;;
54917;SDS011;40818;50.562;7.454;2022-08-21T17:55:19;2.40;;;0.20;;
54917;SDS011;40818;50.562;7.454;2022-08-21T18:00:24;1.63;;;0.22;;
54917;SDS011;40818;50.562;7.454;2022-08-21T18:05:28;3.25;;;0.30;;
54917;SDS011;40818;50.562;7.454;2022-08-21T18:10:35;3.95;;;0.30;;
54917;SDS011;40818;50.562;7.454;2022-08-21T18:15:41;4.00;;;0.20;;
54917;SDS011;40818;50.562;7.454;2022-08-21T18:20:47;2.90;;;0.20;;
54917;SDS011;40818;50.562;7.454;2022-08-21T18:25:53;2.45;;;0.30;;
54917;SDS011;40818;50.562;7.454;2022-08-21T18:30:58;2.47;;;0.25;;
54917;SDS011;40818;50.562;7.454;2022-08-21T18:36:02;1.88;;;0.30;;
54917;SDS011;40818;50.562;7.454;2022-08-21T18:41:08;2.38;;;0.40;;
54917;SDS011;40818;50.562;7.454;2022-08-21T18:46:12;3.15;;;0.20;;
54917;SDS011;40818;50.562;7.454;2022-08-21T18:51:16;3.70;;;0.30;;
54917;SDS011;40818;50.562;7.454;2022-08-21T18:56:22;2.35;;;0.22;;
54917;SDS011;40818;50.562;7.454;2022-08-21T19:01:25;2.05;;;0.20;;
54917;SDS011;40818;50.562;7.454;2022-08-21T19:06:29;2.15;;;0.30;;
54917;SDS011;40818;50.562;7.454;2022-08-21T19:11:38;1.30;;;0.20;;
54917;SDS011;40818;50.562;7.454;2022-08-21T19:16:43;3.63;;;0.30;;
54917;SDS011;40818;50.562;7.454;2022-08-21T19:21:49;2.72;;;0.30;;
54917;SDS011;40818;50.562;7.454;2022-08-21T19:26:55;3.95;;;0.20;;
54917;SDS011;40818;50.562;7.454;2022-08-21T19:31:59;2.42;;;0.30;;
54917;SDS011;40818;50.562;7.454;2022-08-21T19:37:08;1.80;;;0.20;;
54917;SDS011;40818;50.562;7.454;2022-08-21T19:47:23;1.52;;;0.20;;
54917;SDS011;40818;50.562;7.454;2022-08-21T19:52:27;1.45;;;0.20;;
54917;SDS011;40818;50.562;7.454;2022-08-21T19:57:34;3.33;;;0.30;;
54917;SDS011;40818;50.562;7.454;2022-08-21T20:02:39;3.08;;;0.20;;
54917;SDS011;40818;50.562;7.454;2022-08-21T20:07:43;1.58;;;0.20;;
54917;SDS011;40818;50.562;7.454;2022-08-21T20:12:49;1.67;;;0.20;;
54917;SDS011;40818;50.562;7.454;2022-08-21T20:17:53;2.60;;;0.30;;
54917;SDS011;40818;50.562;7.454;2022-08-21T20:22:56;1.27;;;0.20;;
54917;SDS011;40818;50.562;7.454;2022-08-21T20:28:02;2.10;;;0.20;;
54917;SDS011;40818;50.562;7.454;2022-08-21T20:33:07;1.70;;;0.20;;
54917;SDS011;40818;50.562;7.454;2022-08-21T20:38:11;1.88;;;0.20;;
54917;SDS011;40818;50.562;7.454;2022-08-21T20:43:17;1.58;;;0.30;;
54917;SDS011;40818;50.562;7.454;2022-08-21T20:48:23;1.00;;;0.20;;
54917;SDS011;40818;50.562;7.454;2022-08-21T20:53:33;2.30;;;0.25;;
54917;SDS011;40818;50.562;7.454;2022-08-21T20:58:44;1.30;;;0.20;;
54917;SDS011;40818;50.562;7.454;2022-08-21T21:03:58;1.75;;;0.20;;
54917;SDS011;40818;50.562;7.454;2022-08-21T21:09:09;2.90;;;0.30;;
54917;SDS011;40818;50.562;7.454;2022-08-21T21:14:19;2.88;;;0.22;;
54917;SDS011;40818;50.562;7.454;2022-08-21T21:19:29;1.05;;;0.20;;
54917;SDS011;40818;50.562;7.454;2022-08-21T21:24:40;1.63;;;0.20;;
54917;SDS011;40818;50.562;7.454;2022-08-21T21:29:57;3.38;;;0.20;;
54917;SDS011;40818;50.562;7.454;2022-08-21T21:35:04;3.70;;;0.30;;
54917;SDS011;40818;50.562;7.454;2022-08-21T21:40:16;1.55;;;0.28;;
54917;SDS011;40818;50.562;7.454;2022-08-21T21:45:41;1.73;;;0.20;;
54917;SDS011;40818;50.562;7.454;2022-08-21T21:51:01;4.00;;;0.20;;
54917;SDS011;40818;50.562;7.454;2022-08-21T21:56:17;1.38;;;0.20;;
54917;SDS011;40818;50.562;7.454;2022-08-21T22:01:33;1.63;;;0.28;;
54917;SDS011;40818;50.562;7.454;2022-08-21T22:06:43;1.83;;;0.20;;
54917;SDS011;40818;50.562;7.454;2022-08-21T22:11:55;1.38;;;0.20;;
54917;SDS011;40818;50.562;7.454;2022-08-21T22:17:09;3.97;;;0.20;;
54917;SDS011;40818;50.562;7.454;2022-08-21T22:22:25;1.58;;;0.20;;
54917;SDS011;40818;50.562;7.454;2022-08-21T22:27:31;2.67;;;0.20;;
54917;SDS011;40818;50.562;7.454;2022-08-21T22:32:40;3.63;;;0.20;;
54917;SDS011;40818;50.562;7.454;2022-08-21T22:37:45;1.83;;;0.20;;
54917;SDS011;40818;50.562;7.454;2022-08-21T22:42:58;1.00;;;0.20;;
54917;SDS011;40818;50.562;7.454;2022-08-21T22:48:05;1.23;;;0.20;;
54917;SDS011;40818;50.562;7.454;2022-08-21T22:53:11;2.00;;;0.20;;
54917;SDS011;40818;50.562;7.454;2022-08-21T22:58:26;1.40;;;0.28;;
54917;SDS011;40818;50.562;7.454;2022-08-21T23:03:40;1.20;;;0.20;;
54917;SDS011;40818;50.562;7.454;2022-08-21T23:08:47;1.92;;;0.20;;
54917;SDS011;40818;50.562;7.454;2022-08-21T23:13:52;2.03;;;0.20;;
54917;SDS011;40818;50.562;7.454;2022-08-21T23:19:00;1.15;;;0.20;;
54917;SDS011;40818;50.562;7.454;2022-08-21T23:24:17;0.93;;;0.10;;
54917;SDS011;40818;50.562;7.454;2022-08-21T23:29:42;1.30;;;0.20;;
54917;SDS011;40818;50.562;7.454;2022-08-21T23:34:57;2.42;;;0.17;;
54917;SDS011;40818;50.562;7.454;2022-08-21T23:40:13;1.90;;;0.20;;
54917;SDS011;40818;50.562;7.454;2022-08-21T23:45:41;2.08;;;0.20;;
54917;SDS011;40818;50.562;7.454;2022-08-21T23:51:00;2.17;;;0.20;;
54917;SDS011;40818;50.562;7.454;2022-08-21T23:56:14;1.45;;;0.20;;
